Time,TemperatureF,DewpointF,PressureIn,WindDirection,WindDirectionDegrees,WindSpeedMPH,WindSpeedGustMPH,Humidity,HourlyPrecipIn,Conditions,Clouds,dailyrainin,SoftwareType,DateUTC
2013-11-30 00:00:00,53.2,45.8,30.43,North,32767,3.0,3.0,76,0.00,,,0.00,Wunderground v.1.15,2013-11-30 05:00:00,
2013-11-30 00:05:00,53.3,45.9,30.43,North,32767,3.0,4.0,76,0.00,,,0.00,Wunderground v.1.15,2013-11-30 05:05:00,
2013-11-30 00:15:00,53.4,46.0,30.43,North,32767,4.0,7.0,76,0.00,,,0.00,Wunderground v.1.15,2013-11-30 05:15:00,
2013-11-30 00:20:00,53.2,45.8,30.43,North,32767,3.0,7.0,76,0.00,,,0.00,Wunderground v.1.15,2013-11-30 05:20:00,
2013-11-30 00:30:00,53.2,46.5,30.43,North,32767,3.0,3.0,78,0.00,,,0.00,Wunderground v.1.15,2013-11-30 05:30:00,
2013-11-30 00:35:00,53.1,46.4,30.42,North,32767,2.0,3.0,78,0.00,,,0.00,Wunderground v.1.15,2013-11-30 05:35:00,
2013-11-30 00:45:00,53.0,46.7,30.42,North,32767,2.0,5.0,79,0.00,,,0.00,Wunderground v.1.15,2013-11-30 05:45:00,
2013-11-30 00:50:00,52.9,46.9,30.42,North,32767,3.0,3.0,80,0.00,,,0.00,Wunderground v.1.15,2013-11-30 05:50:00,
2013-11-30 01:00:00,52.9,46.9,30.42,North,32767,3.0,3.0,80,0.00,,,0.00,Wunderground v.1.15,2013-11-30 06:00:00,
2013-11-30 01:05:00,52.9,46.9,30.42,North,32767,3.0,8.0,80,0.00,,,0.00,Wunderground v.1.15,2013-11-30 06:05:00,
2013-11-30 01:15:00,52.8,46.5,30.42,North,32767,3.0,8.0,79,0.00,,,0.00,Wunderground v.1.15,2013-11-30 06:15:00,
2013-11-30 01:25:00,52.6,46.3,30.41,North,32767,3.0,3.0,79,0.00,,,0.00,Wunderground v.1.15,2013-11-30 06:25:00,
2013-11-30 01:35:00,52.4,46.4,30.40,North,32767,3.0,3.0,80,0.00,,,0.00,Wunderground v.1.15,2013-11-30 06:35:00,
2013-11-30 01:45:00,52.3,46.0,30.40,North,32767,3.0,6.0,79,0.00,,,0.00,Wunderground v.1.15,2013-11-30 06:45:00,
2013-11-30 01:50:00,52.2,46.2,30.40,North,32767,2.0,3.0,80,0.00,,,0.00,Wunderground v.1.15,2013-11-30 06:50:00,
2013-11-30 02:00:00,52.1,46.1,30.40,North,32767,2.0,2.0,80,0.00,,,0.00,Wunderground v.1.15,2013-11-30 07:00:00,
2013-11-30 02:05:00,52.0,46.3,30.39,North,32767,1.0,3.0,81,0.00,,,0.00,Wunderground v.1.15,2013-11-30 07:05:00,
2013-11-30 02:10:00,51.9,46.3,30.39,North,32767,2.0,2.0,81,0.00,,,0.00,Wunderground v.1.15,2013-11-30 07:10:00,
2013-11-30 02:20:00,51.7,46.4,30.39,North,32767,3.0,3.0,82,0.00,,,0.00,Wunderground v.1.15,2013-11-30 07:20:00,
2013-11-30 02:30:00,51.6,46.3,30.39,North,32767,3.0,3.0,82,0.00,,,0.00,Wunderground v.1.15,2013-11-30 07:30:00,
2013-11-30 02:40:00,51.3,46.3,30.39,North,32767,1.0,1.0,83,0.00,,,0.00,Wunderground v.1.15,2013-11-30 07:40:00,
2013-11-30 02:45:00,51.2,46.2,30.39,North,32767,1.0,2.0,83,0.00,,,0.00,Wunderground v.1.15,2013-11-30 07:45:00,
2013-11-30 02:55:00,51.0,46.3,30.38,North,32767,1.0,2.0,84,0.00,,,0.00,Wunderground v.1.15,2013-11-30 07:55:00,
2013-11-30 03:05:00,51.2,46.8,30.39,North,32767,1.0,9.0,85,0.00,,,0.00,Wunderground v.1.15,2013-11-30 08:05:00,
2013-11-30 03:10:00,51.3,46.9,30.39,North,32767,1.0,9.0,85,0.00,,,0.00,Wunderground v.1.15,2013-11-30 08:10:00,
2013-11-30 03:20:00,51.6,47.2,30.39,North,32767,1.0,9.0,85,0.00,,,0.00,Wunderground v.1.15,2013-11-30 08:20:00,
2013-11-30 03:25:00,51.8,47.4,30.38,North,32767,2.0,9.0,85,0.00,,,0.00,Wunderground v.1.15,2013-11-30 08:25:00,
2013-11-30 03:35:00,51.9,47.5,30.38,North,32767,2.0,2.0,85,0.00,,,0.00,Wunderground v.1.15,2013-11-30 08:35:00,
2013-11-30 03:45:00,52.1,47.7,30.39,North,32767,1.0,2.0,85,0.00,,,0.00,Wunderground v.1.15,2013-11-30 08:45:00,
2013-11-30 03:55:00,52.2,47.8,30.39,North,32767,1.0,1.0,85,0.00,,,0.00,Wunderground v.1.15,2013-11-30 08:55:00,
2013-11-30 04:00:00,52.2,47.8,30.38,North,32767,2.0,3.0,85,0.00,,,0.00,Wunderground v.1.15,2013-11-30 09:00:00,
2013-11-30 04:10:00,52.3,48.2,30.38,North,32767,1.0,1.0,86,0.00,,,0.00,Wunderground v.1.15,2013-11-30 09:10:00,
2013-11-30 04:20:00,52.5,48.4,30.38,North,32767,1.0,5.0,86,0.00,,,0.00,Wunderground v.1.15,2013-11-30 09:20:00,
2013-11-30 04:25:00,52.7,48.6,30.39,North,32767,1.0,5.0,86,0.00,,,0.00,Wunderground v.1.15,2013-11-30 09:25:00,
2013-11-30 04:35:00,52.8,48.7,30.38,North,32767,1.0,1.0,86,0.00,,,0.00,Wunderground v.1.15,2013-11-30 09:35:00,
2013-11-30 04:40:00,52.7,48.6,30.38,North,32767,1.0,3.0,86,0.00,,,0.00,Wunderground v.1.15,2013-11-30 09:40:00,
2013-11-30 04:50:00,52.7,48.9,30.38,North,32767,1.0,3.0,87,0.00,,,0.00,Wunderground v.1.15,2013-11-30 09:50:00,
2013-11-30 04:55:00,52.7,48.9,30.38,North,32767,2.0,5.0,87,0.00,,,0.00,Wunderground v.1.15,2013-11-30 09:55:00,
2013-11-30 05:05:00,52.6,48.8,30.38,North,32767,1.0,5.0,87,0.00,,,0.00,Wunderground v.1.15,2013-11-30 10:05:00,
2013-11-30 05:15:00,52.6,48.8,30.38,North,32767,1.0,5.0,87,0.00,,,0.00,Wunderground v.1.15,2013-11-30 10:15:00,
2013-11-30 05:25:00,52.6,49.1,30.38,North,32767,1.0,5.0,88,0.00,,,0.00,Wunderground v.1.15,2013-11-30 10:25:00,
2013-11-30 05:35:00,52.7,49.2,30.38,North,32767,3.0,3.0,88,0.00,,,0.00,Wunderground v.1.15,2013-11-30 10:35:00,
2013-11-30 05:45:00,52.9,49.4,30.38,North,32767,3.0,3.0,88,0.00,,,0.00,Wunderground v.1.15,2013-11-30 10:45:00,
2013-11-30 05:50:00,53.0,49.5,30.38,North,32767,3.0,3.0,88,0.00,,,0.00,Wunderground v.1.15,2013-11-30 10:50:00,
2013-11-30 06:00:00,53.0,49.5,30.38,North,32767,2.0,2.0,88,0.00,,,0.00,Wunderground v.1.15,2013-11-30 11:00:00,
2013-11-30 06:10:00,52.9,49.4,30.39,North,32767,2.0,6.0,88,0.00,,,0.00,Wunderground v.1.15,2013-11-30 11:10:00,
2013-11-30 06:20:00,52.9,49.4,30.40,North,32767,2.0,6.0,88,0.00,,,0.00,Wunderground v.1.15,2013-11-30 11:20:00,
2013-11-30 06:25:00,52.8,49.3,30.40,North,32767,2.0,6.0,88,0.00,,,0.00,Wunderground v.1.15,2013-11-30 11:25:00,
2013-11-30 06:35:00,52.6,49.1,30.41,North,32767,2.0,3.0,88,0.00,,,0.00,Wunderground v.1.15,2013-11-30 11:35:00,
2013-11-30 06:45:00,52.5,49.0,30.40,North,32767,2.0,2.0,88,0.00,,,0.00,Wunderground v.1.15,2013-11-30 11:45:00,
2013-11-30 06:50:00,52.5,49.0,30.40,North,32767,2.0,2.0,88,0.00,,,0.00,Wunderground v.1.15,2013-11-30 11:50:00,
2013-11-30 07:00:00,52.5,49.4,30.41,North,32767,2.0,3.0,89,0.00,,,0.00,Wunderground v.1.15,2013-11-30 12:00:00,
2013-11-30 07:10:00,52.4,49.3,30.40,North,32767,2.0,2.0,89,0.00,,,0.00,Wunderground v.1.15,2013-11-30 12:10:00,
2013-11-30 07:20:00,52.3,49.5,30.40,North,32767,3.0,8.0,90,0.00,,,0.00,Wunderground v.1.15,2013-11-30 12:20:00,
2013-11-30 07:25:00,52.2,49.4,30.40,North,32767,3.0,8.0,90,0.00,,,0.00,Wunderground v.1.15,2013-11-30 12:25:00,
2013-11-30 07:35:00,52.2,49.4,30.41,North,32767,2.0,3.0,90,0.00,,,0.00,Wunderground v.1.15,2013-11-30 12:35:00,
2013-11-30 07:40:00,52.3,49.5,30.41,North,32767,3.0,3.0,90,0.00,,,0.00,Wunderground v.1.15,2013-11-30 12:40:00,
2013-11-30 07:50:00,52.5,49.7,30.40,North,32767,3.0,3.0,90,0.00,,,0.00,Wunderground v.1.15,2013-11-30 12:50:00,
2013-11-30 08:00:00,52.6,49.8,30.40,North,32767,3.0,3.0,90,0.00,,,0.00,Wunderground v.1.15,2013-11-30 13:00:00,
2013-11-30 08:10:00,52.6,50.0,30.41,North,32767,3.0,3.0,91,0.00,,,0.00,Wunderground v.1.15,2013-11-30 13:10:00,
2013-11-30 08:20:00,52.7,50.1,30.41,North,32767,3.0,8.0,91,0.00,,,0.00,Wunderground v.1.15,2013-11-30 13:20:00,
2013-11-30 08:25:00,53.0,50.4,30.41,North,32767,3.0,8.0,91,0.00,,,0.00,Wunderground v.1.15,2013-11-30 13:25:00,
2013-11-30 08:35:00,53.3,50.7,30.41,North,32767,3.0,3.0,91,0.00,,,0.00,Wunderground v.1.15,2013-11-30 13:35:00,
2013-11-30 08:40:00,53.6,51.0,30.41,North,32767,2.0,3.0,91,0.00,,,0.00,Wunderground v.1.15,2013-11-30 13:40:00,
2013-11-30 08:50:00,53.9,51.3,30.41,North,32767,3.0,4.0,91,0.00,,,0.00,Wunderground v.1.15,2013-11-30 13:50:00,
2013-11-30 08:55:00,54.1,51.5,30.41,North,32767,4.0,4.0,91,0.00,,,0.00,Wunderground v.1.15,2013-11-30 13:55:00,
2013-11-30 09:05:00,54.4,51.8,30.41,North,32767,4.0,8.0,91,0.00,,,0.00,Wunderground v.1.15,2013-11-30 14:05:00,
2013-11-30 09:15:00,54.6,52.0,30.42,North,32767,5.0,5.0,91,0.00,,,0.00,Wunderground v.1.15,2013-11-30 14:15:00,
2013-11-30 09:25:00,54.9,52.0,30.42,North,32767,4.0,4.0,90,0.00,,,0.00,Wunderground v.1.15,2013-11-30 14:25:00,
2013-11-30 09:30:00,55.0,52.1,30.42,North,32767,4.0,4.0,90,0.00,,,0.00,Wunderground v.1.15,2013-11-30 14:30:00,
2013-11-30 09:40:00,55.1,52.5,30.42,North,32767,5.0,5.0,91,0.00,,,0.00,Wunderground v.1.15,2013-11-30 14:40:00,
2013-11-30 09:50:00,55.6,53.0,30.43,North,32767,4.0,4.0,91,0.00,,,0.00,Wunderground v.1.15,2013-11-30 14:50:00,
2013-11-30 09:55:00,55.7,52.8,30.43,North,32767,4.0,4.0,90,0.00,,,0.00,Wunderground v.1.15,2013-11-30 14:55:00,
2013-11-30 10:05:00,55.7,52.5,30.43,North,32767,5.0,9.0,89,0.00,,,0.00,Wunderground v.1.15,2013-11-30 15:05:00,
2013-11-30 10:15:00,56.1,53.2,30.43,North,32767,4.0,9.0,90,0.00,,,0.00,Wunderground v.1.15,2013-11-30 15:15:00,
2013-11-30 10:25:00,56.1,52.9,30.43,North,32767,4.0,9.0,89,0.00,,,0.00,Wunderground v.1.15,2013-11-30 15:25:00,
2013-11-30 10:30:00,56.1,52.9,30.43,North,32767,6.0,6.0,89,0.00,,,0.00,Wunderground v.1.15,2013-11-30 15:30:00,
2013-11-30 10:40:00,56.4,53.2,30.42,North,32767,5.0,5.0,89,0.00,,,0.00,Wunderground v.1.15,2013-11-30 15:40:00,
2013-11-30 10:50:00,56.4,53.2,30.42,North,32767,5.0,5.0,89,0.00,,,0.00,Wunderground v.1.15,2013-11-30 15:50:00,
2013-11-30 10:55:00,56.5,53.3,30.42,North,32767,5.0,5.0,89,0.00,,,0.00,Wunderground v.1.15,2013-11-30 15:55:00,
2013-11-30 11:05:00,56.7,53.5,30.42,North,32767,5.0,11.0,89,0.00,,,0.00,Wunderground v.1.15,2013-11-30 16:05:00,
2013-11-30 11:15:00,57.0,53.5,30.42,North,32767,5.0,7.0,88,0.00,,,0.00,Wunderground v.1.15,2013-11-30 16:15:00,
2013-11-30 11:25:00,57.5,54.0,30.42,North,32767,7.0,11.0,88,0.00,,,0.00,Wunderground v.1.15,2013-11-30 16:25:00,
2013-11-30 11:35:00,58.9,54.7,30.41,North,32767,5.0,6.0,86,0.00,,,0.00,Wunderground v.1.15,2013-11-30 16:35:00,
2013-11-30 11:45:00,59.1,54.3,30.41,North,32767,7.0,7.0,84,0.00,,,0.00,Wunderground v.1.15,2013-11-30 16:45:00,
2013-11-30 11:55:00,60.1,54.6,30.40,North,32767,5.0,6.0,82,0.00,,,0.00,Wunderground v.1.15,2013-11-30 16:55:00,
2013-11-30 12:05:00,60.6,54.7,30.40,North,32767,4.0,12.0,81,0.00,,,0.00,Wunderground v.1.15,2013-11-30 17:05:00,
2013-11-30 12:15:00,60.4,55.2,30.39,North,32767,4.0,12.0,83,0.00,,,0.00,Wunderground v.1.15,2013-11-30 17:15:00,
2013-11-30 12:25:00,60.3,55.8,30.39,North,32767,6.0,12.0,85,0.00,,,0.00,Wunderground v.1.15,2013-11-30 17:25:00,
2013-11-30 12:30:00,60.8,55.3,30.38,North,32767,5.0,10.0,82,0.00,,,0.00,Wunderground v.1.15,2013-11-30 17:30:00,
2013-11-30 12:40:00,61.0,55.5,30.38,North,32767,7.0,7.0,82,0.00,,,0.00,Wunderground v.1.15,2013-11-30 17:40:00,
2013-11-30 12:45:00,61.4,55.9,30.38,North,32767,6.0,7.0,82,0.00,,,0.00,Wunderground v.1.15,2013-11-30 17:45:00,
2013-11-30 12:55:00,62.7,56.8,30.37,North,32767,4.0,5.0,81,0.00,,,0.00,Wunderground v.1.15,2013-11-30 17:55:00,
2013-11-30 13:05:00,63.0,56.0,30.37,North,32767,5.0,5.0,78,0.00,,,0.00,Wunderground v.1.15,2013-11-30 18:05:00,
2013-11-30 13:15:00,63.7,56.7,30.36,North,32767,5.0,13.0,78,0.00,,,0.00,Wunderground v.1.15,2013-11-30 18:15:00,
2013-11-30 13:25:00,64.1,56.7,30.35,North,32767,6.0,9.0,77,0.00,,,0.00,Wunderground v.1.15,2013-11-30 18:25:00,
2013-11-30 13:35:00,64.5,57.1,30.35,North,32767,6.0,6.0,77,0.00,,,0.00,Wunderground v.1.15,2013-11-30 18:35:00,
2013-11-30 13:40:00,64.8,56.7,30.35,North,32767,5.0,5.0,75,0.00,,,0.00,Wunderground v.1.15,2013-11-30 18:40:00,
2013-11-30 13:50:00,64.5,56.8,30.35,North,32767,6.0,8.0,76,0.00,,,0.00,Wunderground v.1.15,2013-11-30 18:50:00,
2013-11-30 13:55:00,64.6,56.9,30.34,North,32767,6.0,8.0,76,0.00,,,0.00,Wunderground v.1.15,2013-11-30 18:55:00,
2013-11-30 14:05:00,65.1,57.0,30.34,North,32767,5.0,9.0,75,0.00,,,0.00,Wunderground v.1.15,2013-11-30 19:05:00,
2013-11-30 14:15:00,65.2,57.8,30.33,North,32767,5.0,12.0,77,0.00,,,0.00,Wunderground v.1.15,2013-11-30 19:15:00,
2013-11-30 14:25:00,65.0,57.6,30.33,North,32767,5.0,7.0,77,0.00,,,0.00,Wunderground v.1.15,2013-11-30 19:25:00,
2013-11-30 14:30:00,65.2,58.5,30.33,North,32767,4.0,4.0,79,0.00,,,0.00,Wunderground v.1.15,2013-11-30 19:30:00,
2013-11-30 14:40:00,65.4,57.6,30.32,North,32767,3.0,3.0,76,0.00,,,0.00,Wunderground v.1.15,2013-11-30 19:40:00,